createdAt,value
2023-06-28T00:01:41.922Z,21.33
2023-06-28T00:04:09.537Z,21.24
2023-06-28T00:06:37.215Z,21.20
2023-06-28T00:09:05.020Z,21.19
2023-06-28T00:11:32.596Z,21.17
2023-06-28T00:14:00.240Z,21.35
2023-06-28T00:16:27.959Z,21.28
2023-06-28T00:19:01.804Z,21.21
2023-06-28T00:21:29.666Z,21.17
2023-06-28T00:23:57.233Z,21.17
2023-06-28T00:26:24.889Z,21.08
2023-06-28T00:28:52.438Z,21.09
2023-06-28T00:31:20.161Z,21.07
2023-06-28T00:33:48.190Z,21.09
2023-06-28T00:36:17.173Z,21.18
2023-06-28T00:38:44.870Z,21.11
2023-06-28T00:41:12.469Z,21.10
2023-06-28T00:43:40.062Z,21.14
2023-06-28T00:46:07.604Z,21.13
2023-06-28T00:48:36.338Z,21.08
2023-06-28T00:51:05.521Z,21.01
2023-06-28T00:53:34.664Z,21.08
2023-06-28T00:56:02.398Z,20.61
2023-06-28T00:58:30.126Z,20.90
2023-06-28T01:00:58.031Z,21.08
2023-06-28T01:03:25.803Z,21.07
2023-06-28T01:05:54.136Z,20.99
2023-06-28T01:08:22.692Z,20.97
2023-06-28T01:10:52.287Z,21.03
2023-06-28T01:13:21.375Z,21.17
2023-06-28T01:15:49.005Z,20.92
2023-06-28T01:18:20.840Z,21.11
2023-06-28T01:20:48.702Z,21.05
2023-06-28T01:23:17.849Z,20.99
2023-06-28T01:25:45.668Z,20.96
2023-06-28T01:28:15.007Z,20.96
2023-06-28T01:30:43.001Z,20.80
2023-06-28T01:33:10.802Z,20.88
2023-06-28T01:35:38.453Z,20.74
2023-06-28T01:38:06.767Z,20.70
2023-06-28T01:40:37.228Z,20.64
2023-06-28T01:43:07.459Z,20.67
2023-06-28T01:45:35.622Z,20.57
2023-06-28T01:48:04.124Z,20.49
2023-06-28T01:50:32.144Z,20.45
2023-06-28T01:53:02.530Z,20.43
2023-06-28T01:55:30.278Z,20.42
2023-06-28T01:57:59.185Z,20.45
2023-06-28T02:00:27.142Z,20.56
2023-06-28T02:02:55.219Z,20.47
2023-06-28T02:05:23.440Z,20.39
2023-06-28T02:07:51.091Z,20.37
2023-06-28T02:10:19.211Z,20.21
2023-06-28T02:12:47.883Z,20.27
2023-06-28T02:15:16.986Z,20.40
2023-06-28T02:17:44.625Z,20.44
2023-06-28T02:20:13.634Z,20.43
2023-06-28T02:22:41.733Z,20.34
2023-06-28T02:25:10.145Z,20.21
2023-06-28T02:27:37.694Z,20.10
2023-06-28T02:30:06.125Z,20.03
2023-06-28T02:32:35.198Z,19.96
2023-06-28T02:35:02.808Z,19.84
2023-06-28T02:37:30.396Z,19.83
2023-06-28T02:39:58.611Z,19.81
2023-06-28T02:42:26.177Z,19.85
2023-06-28T02:44:53.737Z,19.98
2023-06-28T02:47:21.396Z,19.96
2023-06-28T02:49:50.386Z,19.90
2023-06-28T02:52:17.930Z,19.96
2023-06-28T02:54:45.574Z,19.93
2023-06-28T02:57:13.111Z,19.97
2023-06-28T02:59:40.669Z,19.94
2023-06-28T03:02:10.741Z,19.92
2023-06-28T03:04:40.779Z,19.98
2023-06-28T03:07:14.442Z,19.89
2023-06-28T03:09:42.171Z,19.79
2023-06-28T03:12:11.281Z,19.74
2023-06-28T03:14:39.110Z,19.73
2023-06-28T03:17:07.404Z,19.72
2023-06-28T03:19:36.065Z,19.70
2023-06-28T03:22:04.089Z,19.84
2023-06-28T03:24:33.382Z,19.51
2023-06-28T03:27:00.939Z,19.39
2023-06-28T03:29:28.543Z,19.58
2023-06-28T03:31:57.098Z,19.72
2023-06-28T03:34:24.732Z,19.80
2023-06-28T03:37:02.718Z,19.75
2023-06-28T03:39:33.136Z,19.76
2023-06-28T03:42:00.704Z,19.78
2023-06-28T03:44:28.269Z,19.54
2023-06-28T03:46:55.888Z,19.37
2023-06-28T03:49:23.470Z,19.62
2023-06-28T03:51:51.168Z,19.77
2023-06-28T03:54:21.507Z,19.77
2023-06-28T03:56:50.971Z,19.74
2023-06-28T03:59:18.639Z,19.75
2023-06-28T04:01:48.403Z,19.70
2023-06-28T04:04:16.604Z,19.67
2023-06-28T04:06:44.265Z,19.72
2023-06-28T04:09:11.903Z,19.59
2023-06-28T04:11:39.433Z,19.70
2023-06-28T04:14:08.402Z,19.77
2023-06-28T04:16:35.938Z,19.68
2023-06-28T04:19:03.517Z,19.83
2023-06-28T04:21:31.174Z,19.90
2023-06-28T04:23:58.735Z,19.78
2023-06-28T04:26:26.349Z,19.84
2023-06-28T04:28:53.993Z,19.90
2023-06-28T04:31:23.208Z,20.02
2023-06-28T04:33:50.791Z,20.07
2023-06-28T04:36:22.412Z,20.03
2023-06-28T04:38:53.513Z,20.00
2023-06-28T04:41:21.398Z,20.08
2023-06-28T04:43:49.065Z,20.02
2023-06-28T04:46:17.065Z,20.07
2023-06-28T04:48:46.127Z,20.06
2023-06-28T04:51:13.660Z,20.07
2023-06-28T04:53:41.206Z,20.00
2023-06-28T04:56:08.886Z,19.95
2023-06-28T04:58:38.490Z,20.01
2023-06-28T05:01:08.959Z,20.01
2023-06-28T05:03:39.774Z,19.98
2023-06-28T05:06:11.477Z,20.11
2023-06-28T05:08:39.022Z,20.04
2023-06-28T05:11:08.485Z,20.26
2023-06-28T05:13:36.058Z,20.28
2023-06-28T05:16:03.774Z,20.25
2023-06-28T05:18:31.346Z,20.23
2023-06-28T05:20:58.931Z,20.26
2023-06-28T05:23:27.836Z,20.24
2023-06-28T05:25:55.486Z,20.34
2023-06-28T05:28:25.369Z,20.38
2023-06-28T05:30:52.979Z,20.60
2023-06-28T05:33:20.611Z,20.54
2023-06-28T05:35:49.963Z,20.63
2023-06-28T05:38:17.521Z,20.65
2023-06-28T05:40:46.450Z,20.72
2023-06-28T05:43:13.999Z,20.76
2023-06-28T05:45:41.539Z,20.75
2023-06-28T05:48:09.341Z,20.73
2023-06-28T05:50:40.219Z,20.76
2023-06-28T05:53:08.670Z,20.84
2023-06-28T05:55:36.277Z,20.92
2023-06-28T05:58:05.295Z,20.88
2023-06-28T06:00:32.890Z,20.83
2023-06-28T06:03:00.608Z,20.87
2023-06-28T06:05:28.195Z,20.75
2023-06-28T06:07:55.811Z,20.70
2023-06-28T06:10:23.437Z,20.80
2023-06-28T06:12:52.906Z,20.78
2023-06-28T06:15:22.169Z,20.72
2023-06-28T06:17:49.896Z,20.60
2023-06-28T06:20:17.642Z,20.54
2023-06-28T06:22:45.881Z,20.56
2023-06-28T06:25:13.434Z,20.48
2023-06-28T06:27:41.009Z,20.55
2023-06-28T06:30:11.433Z,20.54
2023-06-28T06:32:40.444Z,20.50
2023-06-28T06:35:08.796Z,20.45
2023-06-28T06:37:36.394Z,20.54
2023-06-28T06:40:04.234Z,20.57
2023-06-28T06:42:31.801Z,20.53
2023-06-28T06:44:59.372Z,20.63
2023-06-28T06:47:27.000Z,20.79
2023-06-28T06:49:55.999Z,20.87
2023-06-28T06:52:23.569Z,21.04
2023-06-28T06:54:51.121Z,21.05
2023-06-28T06:57:18.809Z,21.20
2023-06-28T06:59:46.443Z,21.28
2023-06-28T07:02:13.970Z,21.34
2023-06-28T07:04:41.535Z,21.36
2023-06-28T07:07:10.481Z,21.37
2023-06-28T07:09:38.095Z,21.33
2023-06-28T07:12:06.741Z,21.42
2023-06-28T07:14:34.391Z,21.48
2023-06-28T07:17:02.020Z,21.53
2023-06-28T07:19:29.789Z,21.56
2023-06-28T07:21:57.343Z,21.53
2023-06-28T07:24:26.387Z,21.76
2023-06-28T07:26:53.924Z,21.91
2023-06-28T07:29:21.743Z,22.09
2023-06-28T07:31:49.355Z,22.14
2023-06-28T07:34:16.910Z,22.21
2023-06-28T07:36:44.438Z,22.19
2023-06-28T07:39:12.449Z,22.25
2023-06-28T07:41:41.296Z,22.38
2023-06-28T07:44:08.849Z,22.40
2023-06-28T07:46:36.490Z,22.44
2023-06-28T07:49:04.412Z,22.47
2023-06-28T07:51:32.053Z,22.62
2023-06-28T07:53:59.689Z,22.64
2023-06-28T07:56:27.247Z,22.63
2023-06-28T07:58:58.550Z,22.72
2023-06-28T08:01:26.127Z,22.84
2023-06-28T08:03:54.350Z,23.05
2023-06-28T08:06:21.985Z,23.26
2023-06-28T08:08:49.731Z,23.49
2023-06-28T08:11:17.308Z,23.30
2023-06-28T08:13:44.971Z,23.57
2023-06-28T08:16:15.073Z,23.22
2023-06-28T08:18:42.670Z,23.60
2023-06-28T08:21:10.272Z,23.80
2023-06-28T08:23:37.923Z,23.83
2023-06-28T08:26:05.519Z,23.96
2023-06-28T08:28:40.886Z,23.95
2023-06-28T08:31:19.361Z,23.69
2023-06-28T08:33:48.747Z,23.69
2023-06-28T08:36:16.491Z,23.35
2023-06-28T08:38:44.115Z,23.80
2023-06-28T08:41:12.151Z,23.71
2023-06-28T08:43:41.510Z,23.88
2023-06-28T08:46:09.241Z,24.22
2023-06-28T08:48:39.594Z,24.27
2023-06-28T08:51:07.655Z,24.36
2023-06-28T08:53:36.537Z,24.25
2023-06-28T08:56:05.628Z,24.55
2023-06-28T08:58:34.505Z,24.66
2023-06-28T09:01:02.532Z,24.70
2023-06-28T09:03:32.242Z,24.83
2023-06-28T09:06:01.684Z,24.67
2023-06-28T09:08:29.698Z,24.87
2023-06-28T09:10:57.528Z,25.11
2023-06-28T09:13:25.572Z,25.30
2023-06-28T09:15:55.294Z,25.20
2023-06-28T09:18:23.165Z,25.32
2023-06-28T09:20:51.914Z,25.45
2023-06-28T09:23:26.191Z,25.73
2023-06-28T09:25:54.164Z,25.03
2023-06-28T09:28:24.568Z,25.55
2023-06-28T09:30:55.947Z,25.90
2023-06-28T09:33:23.772Z,25.82
2023-06-28T09:35:54.808Z,26.04
2023-06-28T09:38:22.618Z,26.19
2023-06-28T09:40:56.314Z,26.21
2023-06-28T09:43:24.132Z,25.98
2023-06-28T09:45:54.753Z,26.08
2023-06-28T09:48:25.700Z,26.24
2023-06-28T09:50:53.289Z,26.09
2023-06-28T09:53:22.856Z,26.00
2023-06-28T09:55:52.424Z,26.16
2023-06-28T09:58:22.895Z,26.26
2023-06-28T10:00:51.871Z,26.24
2023-06-28T10:03:23.957Z,26.15
2023-06-28T10:05:55.470Z,26.47
2023-06-28T10:08:23.136Z,26.64
2023-06-28T10:10:56.722Z,26.59
2023-06-28T10:13:27.929Z,26.75
2023-06-28T10:16:00.611Z,26.76
2023-06-28T10:18:28.291Z,27.00
2023-06-28T10:20:57.110Z,27.08
2023-06-28T10:23:26.487Z,27.20
2023-06-28T10:25:56.638Z,27.15
2023-06-28T10:28:28.698Z,26.96
2023-06-28T10:30:56.367Z,26.78
2023-06-28T10:33:25.084Z,27.04
2023-06-28T10:35:54.449Z,26.90
2023-06-28T10:38:22.022Z,27.07
2023-06-28T10:40:49.781Z,27.21
2023-06-28T10:43:26.288Z,27.20
2023-06-28T10:45:54.416Z,26.92
2023-06-28T10:48:22.586Z,27.30
2023-06-28T10:50:51.773Z,27.38
2023-06-28T10:53:23.793Z,26.74
2023-06-28T10:56:12.225Z,26.63
2023-06-28T10:58:42.438Z,27.09
2023-06-28T11:01:11.457Z,27.09
2023-06-28T11:03:40.842Z,27.44
2023-06-28T11:06:09.601Z,27.83
2023-06-28T11:08:40.162Z,27.43
2023-06-28T11:11:09.146Z,27.41
2023-06-28T11:13:49.518Z,28.06
2023-06-28T11:16:22.292Z,28.16
2023-06-28T11:18:51.033Z,28.15
2023-06-28T11:21:19.869Z,28.00
2023-06-28T11:23:48.312Z,27.92
2023-06-28T11:26:18.010Z,27.58
2023-06-28T11:28:51.784Z,27.88
2023-06-28T11:31:25.707Z,27.98
2023-06-28T11:33:55.949Z,28.23
2023-06-28T11:36:26.317Z,28.35
2023-06-28T11:38:54.385Z,28.10
2023-06-28T11:41:21.972Z,27.86
2023-06-28T11:43:51.321Z,28.26
2023-06-28T11:46:20.078Z,28.92
2023-06-28T11:48:49.810Z,29.05
2023-06-28T11:51:18.279Z,29.26
2023-06-28T11:53:50.064Z,28.78
2023-06-28T11:56:17.697Z,29.45
2023-06-28T11:58:45.316Z,29.79
2023-06-28T12:01:23.194Z,30.13
2023-06-28T12:03:50.939Z,29.61
2023-06-28T12:06:18.645Z,29.91
2023-06-28T12:08:46.337Z,30.43
2023-06-28T12:11:15.668Z,30.45
2023-06-28T12:13:44.021Z,30.84
2023-06-28T12:16:15.865Z,31.17
2023-06-28T12:19:01.451Z,31.37
2023-06-28T12:21:30.752Z,30.24
2023-06-28T12:24:13.989Z,30.26
2023-06-28T12:26:41.708Z,31.08
2023-06-28T12:29:09.619Z,31.44
2023-06-28T12:31:46.872Z,31.12
2023-06-28T12:34:16.377Z,31.30
2023-06-28T12:36:43.969Z,31.39
2023-06-28T12:39:22.283Z,31.25
2023-06-28T12:42:01.985Z,31.67
2023-06-28T12:44:29.612Z,31.19
2023-06-28T12:46:57.611Z,31.63
2023-06-28T12:49:37.808Z,31.21
2023-06-28T12:52:06.143Z,31.70
2023-06-28T12:54:33.730Z,32.11
2023-06-28T12:57:01.437Z,32.28
2023-06-28T12:59:29.276Z,32.58
2023-06-28T13:01:56.893Z,33.01
2023-06-28T13:04:28.526Z,32.06
2023-06-28T13:06:56.154Z,32.30
2023-06-28T13:09:23.798Z,31.80
2023-06-28T13:11:51.505Z,31.72
2023-06-28T13:14:21.269Z,31.35
2023-06-28T13:16:49.641Z,31.81
2023-06-28T13:19:17.299Z,32.35
2023-06-28T13:21:47.715Z,32.46
2023-06-28T13:24:15.270Z,32.63
2023-06-28T13:26:42.887Z,31.07
2023-06-28T13:29:10.558Z,32.11
2023-06-28T13:31:38.184Z,33.65
2023-06-28T13:34:05.867Z,33.99
2023-06-28T13:36:33.417Z,34.19
2023-06-28T13:39:02.308Z,34.62
2023-06-28T13:41:31.633Z,34.33
2023-06-28T13:44:01.196Z,34.29
2023-06-28T13:46:28.939Z,33.98
2023-06-28T13:48:56.550Z,33.67
2023-06-28T13:51:24.213Z,34.34
2023-06-28T13:53:52.079Z,34.45
2023-06-28T13:56:21.051Z,33.85
2023-06-28T13:58:48.688Z,33.75
2023-06-28T14:01:16.309Z,33.72
2023-06-28T14:03:43.946Z,33.83
2023-06-28T14:06:11.584Z,34.18
2023-06-28T14:08:39.244Z,34.07
2023-06-28T14:11:06.923Z,34.31
2023-06-28T14:13:36.018Z,34.04
2023-06-28T14:16:03.663Z,34.65
2023-06-28T14:18:31.258Z,34.60
2023-06-28T14:20:58.818Z,34.88
2023-06-28T14:23:26.421Z,35.54
2023-06-28T14:25:54.018Z,35.51
2023-06-28T14:28:22.218Z,35.48
2023-06-28T14:30:51.427Z,35.75
2023-06-28T14:33:19.013Z,35.98
2023-06-28T14:35:46.575Z,35.41
2023-06-28T14:38:14.130Z,34.96
2023-06-28T14:40:41.759Z,35.69
2023-06-28T14:43:09.325Z,36.10
2023-06-28T14:45:36.854Z,35.81
2023-06-28T14:48:06.729Z,35.95
2023-06-28T14:50:34.310Z,36.19
2023-06-28T14:53:01.899Z,36.58
2023-06-28T14:55:29.491Z,36.56
2023-06-28T14:57:57.142Z,35.74
2023-06-28T15:00:24.714Z,34.96
2023-06-28T15:02:52.285Z,34.96
2023-06-28T15:05:21.280Z,34.65
2023-06-28T15:07:48.866Z,35.07
2023-06-28T15:10:16.546Z,34.72
2023-06-28T15:12:44.102Z,35.01
2023-06-28T15:15:12.051Z,34.97
2023-06-28T15:17:39.679Z,35.01
2023-06-28T15:20:08.127Z,35.45
2023-06-28T15:22:37.816Z,35.90
2023-06-28T15:25:06.969Z,35.69
2023-06-28T15:27:38.718Z,35.74
2023-06-28T15:30:07.807Z,35.94
2023-06-28T15:32:36.638Z,35.46
2023-06-28T15:35:07.238Z,34.71
2023-06-28T15:37:34.800Z,35.14
2023-06-28T15:40:03.690Z,35.20
2023-06-28T15:42:31.374Z,35.01
2023-06-28T15:44:58.987Z,35.32
2023-06-28T15:47:26.563Z,35.23
2023-06-28T15:49:54.196Z,34.32
2023-06-28T15:52:21.861Z,32.73
2023-06-28T15:54:50.759Z,32.47
2023-06-28T15:57:19.770Z,32.42
2023-06-28T15:59:47.316Z,32.61
2023-06-28T16:02:15.086Z,33.02
2023-06-28T16:04:42.824Z,33.32
2023-06-28T16:07:10.467Z,33.34
2023-06-28T16:09:38.058Z,32.74
2023-06-28T16:12:06.620Z,31.93
2023-06-28T16:14:35.506Z,32.16
2023-06-28T16:17:04.330Z,32.15
2023-06-28T16:19:32.002Z,32.67
2023-06-28T16:22:00.043Z,32.09
2023-06-28T16:24:28.686Z,32.84
2023-06-28T16:26:56.275Z,33.41
2023-06-28T16:29:24.172Z,33.85
2023-06-28T16:31:53.244Z,34.08
2023-06-28T16:34:20.954Z,33.78
2023-06-28T16:36:48.595Z,33.30
2023-06-28T16:39:16.300Z,33.74
2023-06-28T16:41:43.896Z,33.63
2023-06-28T16:44:11.517Z,33.55
2023-06-28T16:46:39.102Z,33.24
2023-06-28T16:49:08.028Z,32.94
2023-06-28T16:51:35.618Z,31.81
2023-06-28T16:54:03.209Z,30.92
2023-06-28T16:56:30.819Z,30.61
2023-06-28T16:58:58.744Z,30.66
2023-06-28T17:01:26.492Z,30.98
2023-06-28T17:03:55.267Z,31.59
2023-06-28T17:06:24.194Z,31.90
2023-06-28T17:08:51.853Z,32.43
2023-06-28T17:11:19.893Z,32.93
2023-06-28T17:13:47.452Z,33.30
2023-06-28T17:16:15.023Z,33.51
2023-06-28T17:18:42.629Z,33.84
2023-06-28T17:21:10.221Z,33.95
2023-06-28T17:23:39.164Z,34.19
2023-06-28T17:26:06.805Z,33.65
2023-06-28T17:28:34.365Z,33.12
2023-06-28T17:31:01.966Z,32.91
2023-06-28T17:33:29.554Z,33.32
2023-06-28T17:35:57.166Z,33.33
2023-06-28T17:38:24.726Z,32.84
2023-06-28T17:40:53.687Z,33.07
2023-06-28T17:43:21.228Z,32.33
2023-06-28T17:45:48.777Z,31.48
2023-06-28T17:48:16.483Z,30.49
2023-06-28T17:50:44.219Z,30.79
2023-06-28T17:53:11.869Z,30.95
2023-06-28T17:55:39.515Z,30.34
2023-06-28T17:58:08.554Z,30.05
2023-06-28T18:00:36.555Z,29.59
2023-06-28T18:03:05.804Z,29.18
2023-06-28T18:05:34.362Z,28.97
2023-06-28T18:08:03.649Z,28.56
2023-06-28T18:10:31.472Z,28.28
2023-06-28T18:12:59.539Z,27.90
2023-06-28T18:15:28.430Z,27.82
2023-06-28T18:17:56.150Z,27.79
2023-06-28T18:20:23.880Z,27.81
2023-06-28T18:22:51.503Z,28.11
2023-06-28T18:25:19.096Z,28.16
2023-06-28T18:27:46.692Z,28.03
2023-06-28T18:30:14.718Z,27.49
2023-06-28T18:32:43.673Z,27.44
2023-06-28T18:35:11.260Z,27.37
2023-06-28T18:37:38.842Z,27.33
2023-06-28T18:40:07.547Z,27.31
2023-06-28T18:42:35.100Z,27.71
2023-06-28T18:45:03.888Z,27.33
2023-06-28T18:47:33.091Z,26.57
2023-06-28T18:50:02.078Z,26.46
2023-06-28T18:52:29.715Z,26.08
2023-06-28T18:54:57.280Z,25.65
2023-06-28T18:57:25.268Z,25.85
2023-06-28T18:59:52.899Z,26.11
2023-06-28T19:02:21.173Z,25.82
2023-06-28T19:04:48.769Z,26.01
2023-06-28T19:07:18.039Z,25.97
2023-06-28T19:09:45.634Z,26.43
2023-06-28T19:12:13.389Z,26.61
2023-06-28T19:14:41.468Z,26.48
2023-06-28T19:17:09.154Z,25.96
2023-06-28T19:19:36.916Z,25.63
2023-06-28T19:22:04.687Z,25.61
2023-06-28T19:24:33.578Z,26.03
2023-06-28T19:27:01.210Z,26.18
2023-06-28T19:29:28.846Z,26.14
2023-06-28T19:31:56.420Z,26.19
2023-06-28T19:34:24.162Z,26.19
2023-06-28T19:36:51.804Z,26.19
2023-06-28T19:39:19.887Z,26.17
2023-06-28T19:41:48.791Z,26.20
2023-06-28T19:44:16.795Z,25.51
2023-06-28T19:46:44.366Z,25.41
2023-06-28T19:49:11.984Z,25.10
2023-06-28T19:51:39.543Z,25.06
2023-06-28T19:54:07.206Z,25.09
2023-06-28T19:56:34.865Z,24.58
2023-06-28T19:59:03.812Z,24.77
2023-06-28T20:01:31.414Z,24.49
2023-06-28T20:03:59.007Z,24.55
2023-06-28T20:06:28.874Z,24.35
2023-06-28T20:09:00.036Z,24.63
2023-06-28T20:11:27.584Z,24.79
2023-06-28T20:13:55.246Z,24.76
2023-06-28T20:16:24.219Z,24.67
2023-06-28T20:18:51.860Z,24.55
2023-06-28T20:21:19.413Z,24.56
2023-06-28T20:23:47.040Z,24.56
2023-06-28T20:26:14.604Z,24.57
2023-06-28T20:28:42.409Z,24.55
2023-06-28T20:31:10.694Z,24.57
2023-06-28T20:33:39.806Z,24.65
2023-06-28T20:36:07.728Z,24.64
2023-06-28T20:38:35.319Z,24.51
2023-06-28T20:41:04.824Z,24.50
2023-06-28T20:43:35.792Z,24.47
2023-06-28T20:46:03.961Z,24.28
2023-06-28T20:48:33.154Z,24.20
2023-06-28T20:51:02.359Z,24.10
2023-06-28T20:53:30.708Z,24.11
2023-06-28T20:55:58.331Z,24.07
2023-06-28T20:58:25.928Z,24.06
2023-06-28T21:00:54.721Z,24.02
2023-06-28T21:03:22.353Z,24.03
2023-06-28T21:05:49.904Z,23.97
2023-06-28T21:08:18.965Z,23.91
2023-06-28T21:10:46.536Z,23.90
2023-06-28T21:13:14.125Z,23.91
2023-06-28T21:15:43.708Z,23.78
2023-06-28T21:18:12.033Z,23.81
2023-06-28T21:20:39.949Z,23.75
2023-06-28T21:23:07.574Z,23.68
2023-06-28T21:25:39.151Z,23.53
2023-06-28T21:28:07.158Z,23.50
2023-06-28T21:30:34.774Z,23.53
2023-06-28T21:33:02.387Z,23.64
2023-06-28T21:35:30.473Z,23.49
2023-06-28T21:37:58.070Z,23.44
2023-06-28T21:40:25.637Z,23.22
2023-06-28T21:42:54.631Z,23.25
2023-06-28T21:45:22.181Z,23.18
2023-06-28T21:47:49.923Z,23.09
2023-06-28T21:50:17.508Z,23.00
2023-06-28T21:52:45.076Z,22.95
2023-06-28T21:55:12.626Z,22.94
2023-06-28T21:57:40.246Z,22.95
2023-06-28T22:00:21.659Z,22.72
2023-06-28T22:02:49.296Z,22.79
2023-06-28T22:05:17.966Z,22.70
2023-06-28T22:07:45.765Z,22.67
2023-06-28T22:10:13.427Z,22.67
2023-06-28T22:12:41.163Z,22.49
2023-06-28T22:15:09.243Z,22.55
2023-06-28T22:17:38.630Z,22.61
2023-06-28T22:20:08.028Z,22.61
2023-06-28T22:22:35.693Z,22.65
2023-06-28T22:25:03.732Z,22.55
2023-06-28T22:27:31.417Z,22.56
2023-06-28T22:29:58.981Z,22.45
2023-06-28T22:32:26.625Z,22.35
2023-06-28T22:34:55.588Z,22.31
2023-06-28T22:37:23.165Z,22.35
2023-06-28T22:39:50.721Z,22.22
2023-06-28T22:42:18.809Z,21.99
2023-06-28T22:44:46.427Z,22.00
2023-06-28T22:47:14.092Z,22.02
2023-06-28T22:49:42.688Z,21.98
2023-06-28T22:52:11.663Z,21.96
2023-06-28T22:54:39.278Z,21.87
2023-06-28T22:57:06.913Z,21.84
2023-06-28T22:59:34.507Z,21.83
2023-06-28T23:02:02.110Z,21.81
2023-06-28T23:04:29.677Z,21.84
2023-06-28T23:06:57.506Z,21.77
2023-06-28T23:09:28.486Z,21.47
2023-06-28T23:11:58.711Z,21.55
2023-06-28T23:14:27.148Z,21.57
2023-06-28T23:16:55.875Z,21.58
2023-06-28T23:19:23.455Z,21.43
2023-06-28T23:21:50.998Z,21.49
2023-06-28T23:24:19.925Z,21.53
2023-06-28T23:26:49.827Z,21.43
2023-06-28T23:29:18.835Z,21.38
2023-06-28T23:31:46.445Z,21.36
2023-06-28T23:34:18.188Z,21.38
2023-06-28T23:36:49.951Z,21.28
2023-06-28T23:39:17.791Z,21.27
2023-06-28T23:41:45.330Z,21.20
2023-06-28T23:44:14.722Z,21.15
2023-06-28T23:46:44.667Z,21.08
2023-06-28T23:49:13.640Z,21.05
2023-06-28T23:51:41.724Z,21.02
2023-06-28T23:54:11.044Z,20.98
2023-06-28T23:56:40.273Z,21.04
2023-06-28T23:59:08.293Z,21.05
